sensor_id;sensor_type;location;lat;lon;timestamp;P1;durP1;ratioP1;P2;durP2;ratioP2
63110;SDS011;49201;53.426;10.300;2022-10-12T00:00:15;9.37;;;5.00;;
63110;SDS011;49201;53.426;10.300;2022-10-12T00:02:41;8.80;;;4.73;;
63110;SDS011;49201;53.426;10.300;2022-10-12T00:05:06;9.97;;;4.73;;
63110;SDS011;49201;53.426;10.300;2022-10-12T00:07:32;9.43;;;4.97;;
63110;SDS011;49201;53.426;10.300;2022-10-12T00:09:57;7.47;;;4.43;;
63110;SDS011;49201;53.426;10.300;2022-10-12T00:12:23;10.13;;;4.43;;
63110;SDS011;49201;53.426;10.300;2022-10-12T00:14:49;9.30;;;4.93;;
63110;SDS011;49201;53.426;10.300;2022-10-12T00:17:14;9.10;;;4.77;;
63110;SDS011;49201;53.426;10.300;2022-10-12T00:19:40;10.40;;;4.73;;
63110;SDS011;49201;53.426;10.300;2022-10-12T00:22:06;7.07;;;4.20;;
63110;SDS011;49201;53.426;10.300;2022-10-12T00:24:31;4.80;;;4.10;;
63110;SDS011;49201;53.426;10.300;2022-10-12T00:26:57;7.93;;;4.40;;
63110;SDS011;49201;53.426;10.300;2022-10-12T00:29:22;7.70;;;4.50;;
63110;SDS011;49201;53.426;10.300;2022-10-12T00:31:47;9.30;;;4.63;;
63110;SDS011;49201;53.426;10.300;2022-10-12T00:34:13;8.00;;;4.40;;
63110;SDS011;49201;53.426;10.300;2022-10-12T00:36:38;6.97;;;4.40;;
63110;SDS011;49201;53.426;10.300;2022-10-12T00:39:04;10.20;;;5.30;;
63110;SDS011;49201;53.426;10.300;2022-10-12T00:41:33;7.67;;;4.60;;
63110;SDS011;49201;53.426;10.300;2022-10-12T00:44:01;10.63;;;5.10;;
63110;SDS011;49201;53.426;10.300;2022-10-12T00:51:57;10.23;;;4.60;;
63110;SDS011;49201;53.426;10.300;2022-10-12T00:54:27;7.20;;;4.20;;
63110;SDS011;49201;53.426;10.300;2022-10-12T00:56:56;8.83;;;4.00;;
63110;SDS011;49201;53.426;10.300;2022-10-12T00:59:25;7.77;;;4.53;;
63110;SDS011;49201;53.426;10.300;2022-10-12T01:01:56;8.00;;;4.53;;
63110;SDS011;49201;53.426;10.300;2022-10-12T01:04:21;7.83;;;4.50;;
63110;SDS011;49201;53.426;10.300;2022-10-12T01:06:48;5.43;;;4.37;;
63110;SDS011;49201;53.426;10.300;2022-10-12T01:09:14;9.43;;;5.10;;
63110;SDS011;49201;53.426;10.300;2022-10-12T01:11:40;8.30;;;5.23;;
63110;SDS011;49201;53.426;10.300;2022-10-12T01:14:05;6.80;;;4.63;;
63110;SDS011;49201;53.426;10.300;2022-10-12T01:21:52;10.13;;;5.87;;
63110;SDS011;49201;53.426;10.300;2022-10-12T01:24:37;6.83;;;5.53;;
63110;SDS011;49201;53.426;10.300;2022-10-12T01:35:23;10.63;;;5.67;;
63110;SDS011;49201;53.426;10.300;2022-10-12T01:38:02;10.17;;;5.33;;
63110;SDS011;49201;53.426;10.300;2022-10-12T01:40:33;7.97;;;4.90;;
63110;SDS011;49201;53.426;10.300;2022-10-12T01:43:03;9.37;;;4.67;;
63110;SDS011;49201;53.426;10.300;2022-10-12T01:45:29;12.57;;;5.80;;
63110;SDS011;49201;53.426;10.300;2022-10-12T01:47:54;9.60;;;5.67;;
63110;SDS011;49201;53.426;10.300;2022-10-12T01:50:21;11.10;;;5.03;;
63110;SDS011;49201;53.426;10.300;2022-10-12T02:03:48;9.33;;;5.30;;
63110;SDS011;49201;53.426;10.300;2022-10-12T02:06:19;11.30;;;5.40;;
63110;SDS011;49201;53.426;10.300;2022-10-12T02:08:49;8.17;;;6.03;;
63110;SDS011;49201;53.426;10.300;2022-10-12T02:11:19;10.03;;;5.70;;
63110;SDS011;49201;53.426;10.300;2022-10-12T02:13:51;11.57;;;5.90;;
63110;SDS011;49201;53.426;10.300;2022-10-12T02:16:23;8.63;;;5.40;;
63110;SDS011;49201;53.426;10.300;2022-10-12T02:18:52;11.27;;;5.33;;
63110;SDS011;49201;53.426;10.300;2022-10-12T02:21:20;9.57;;;5.20;;
63110;SDS011;49201;53.426;10.300;2022-10-12T02:23:49;8.63;;;4.97;;
63110;SDS011;49201;53.426;10.300;2022-10-12T02:26:18;11.93;;;5.13;;
63110;SDS011;49201;53.426;10.300;2022-10-12T02:28:45;14.47;;;5.47;;
63110;SDS011;49201;53.426;10.300;2022-10-12T02:33:56;10.80;;;4.83;;
63110;SDS011;49201;53.426;10.300;2022-10-12T02:36:38;7.93;;;4.83;;
63110;SDS011;49201;53.426;10.300;2022-10-12T02:39:11;15.70;;;5.70;;
63110;SDS011;49201;53.426;10.300;2022-10-12T02:41:42;12.20;;;5.37;;
63110;SDS011;49201;53.426;10.300;2022-10-12T02:44:14;10.10;;;5.97;;
63110;SDS011;49201;53.426;10.300;2022-10-12T02:46:44;11.40;;;5.33;;
63110;SDS011;49201;53.426;10.300;2022-10-12T02:49:12;13.27;;;5.47;;
63110;SDS011;49201;53.426;10.300;2022-10-12T02:51:39;11.40;;;5.53;;
63110;SDS011;49201;53.426;10.300;2022-10-12T02:54:07;10.87;;;5.53;;
63110;SDS011;49201;53.426;10.300;2022-10-12T02:56:32;11.80;;;5.07;;
63110;SDS011;49201;53.426;10.300;2022-10-12T02:58:58;17.83;;;5.50;;
63110;SDS011;49201;53.426;10.300;2022-10-12T03:01:23;14.50;;;5.20;;
63110;SDS011;49201;53.426;10.300;2022-10-12T03:03:49;11.97;;;4.93;;
63110;SDS011;49201;53.426;10.300;2022-10-12T03:06:14;15.50;;;5.57;;
63110;SDS011;49201;53.426;10.300;2022-10-12T03:08:40;13.00;;;5.50;;
63110;SDS011;49201;53.426;10.300;2022-10-12T03:11:06;11.13;;;5.50;;
63110;SDS011;49201;53.426;10.300;2022-10-12T03:13:36;10.70;;;5.43;;
63110;SDS011;49201;53.426;10.300;2022-10-12T03:16:05;10.97;;;4.23;;
63110;SDS011;49201;53.426;10.300;2022-10-12T03:18:33;7.93;;;4.67;;
63110;SDS011;49201;53.426;10.300;2022-10-12T03:20:59;12.07;;;5.00;;
63110;SDS011;49201;53.426;10.300;2022-10-12T03:23:25;14.20;;;6.10;;
63110;SDS011;49201;53.426;10.300;2022-10-12T03:25:51;10.73;;;4.40;;
63110;SDS011;49201;53.426;10.300;2022-10-12T03:28:17;8.83;;;5.27;;
63110;SDS011;49201;53.426;10.300;2022-10-12T03:30:43;11.97;;;5.23;;
63110;SDS011;49201;53.426;10.300;2022-10-12T03:33:08;11.60;;;5.17;;
63110;SDS011;49201;53.426;10.300;2022-10-12T03:35:34;10.77;;;5.00;;
63110;SDS011;49201;53.426;10.300;2022-10-12T03:38:00;8.87;;;4.87;;
63110;SDS011;49201;53.426;10.300;2022-10-12T03:40:26;13.10;;;4.97;;
63110;SDS011;49201;53.426;10.300;2022-10-12T03:42:51;12.57;;;5.33;;
63110;SDS011;49201;53.426;10.300;2022-10-12T03:45:16;11.63;;;5.40;;
63110;SDS011;49201;53.426;10.300;2022-10-12T03:47:42;12.43;;;5.07;;
63110;SDS011;49201;53.426;10.300;2022-10-12T03:50:07;11.03;;;4.87;;
63110;SDS011;49201;53.426;10.300;2022-10-12T03:52:33;14.27;;;5.60;;
63110;SDS011;49201;53.426;10.300;2022-10-12T03:54:58;12.00;;;5.07;;
63110;SDS011;49201;53.426;10.300;2022-10-12T03:57:24;7.47;;;4.93;;
63110;SDS011;49201;53.426;10.300;2022-10-12T03:59:49;13.47;;;5.53;;
63110;SDS011;49201;53.426;10.300;2022-10-12T04:02:15;17.87;;;5.60;;
63110;SDS011;49201;53.426;10.300;2022-10-12T04:04:40;14.27;;;5.77;;
63110;SDS011;49201;53.426;10.300;2022-10-12T04:07:06;13.13;;;5.00;;
63110;SDS011;49201;53.426;10.300;2022-10-12T04:09:31;17.47;;;5.60;;
63110;SDS011;49201;53.426;10.300;2022-10-12T04:11:57;13.57;;;5.37;;
63110;SDS011;49201;53.426;10.300;2022-10-12T04:14:22;15.73;;;5.87;;
63110;SDS011;49201;53.426;10.300;2022-10-12T04:16:47;15.33;;;5.23;;
63110;SDS011;49201;53.426;10.300;2022-10-12T04:19:13;13.80;;;6.10;;
63110;SDS011;49201;53.426;10.300;2022-10-12T04:21:39;11.30;;;5.37;;
63110;SDS011;49201;53.426;10.300;2022-10-12T04:24:05;11.70;;;5.40;;
63110;SDS011;49201;53.426;10.300;2022-10-12T04:26:30;15.13;;;5.50;;
63110;SDS011;49201;53.426;10.300;2022-10-12T04:28:56;10.63;;;4.73;;
63110;SDS011;49201;53.426;10.300;2022-10-12T04:31:21;10.97;;;4.83;;
63110;SDS011;49201;53.426;10.300;2022-10-12T04:33:47;16.13;;;5.40;;
63110;SDS011;49201;53.426;10.300;2022-10-12T04:36:12;13.03;;;5.00;;
63110;SDS011;49201;53.426;10.300;2022-10-12T04:38:37;10.20;;;5.20;;
63110;SDS011;49201;53.426;10.300;2022-10-12T04:41:03;9.53;;;5.20;;
63110;SDS011;49201;53.426;10.300;2022-10-12T04:43:28;10.20;;;5.30;;
63110;SDS011;49201;53.426;10.300;2022-10-12T04:45:55;13.17;;;4.80;;
63110;SDS011;49201;53.426;10.300;2022-10-12T04:48:21;9.37;;;4.43;;
63110;SDS011;49201;53.426;10.300;2022-10-12T04:50:47;10.80;;;4.57;;
63110;SDS011;49201;53.426;10.300;2022-10-12T04:53:13;13.00;;;4.90;;
63110;SDS011;49201;53.426;10.300;2022-10-12T04:55:38;12.17;;;4.83;;
63110;SDS011;49201;53.426;10.300;2022-10-12T04:58:03;13.27;;;4.23;;
63110;SDS011;49201;53.426;10.300;2022-10-12T05:00:29;10.03;;;4.07;;
63110;SDS011;49201;53.426;10.300;2022-10-12T05:02:54;11.27;;;4.73;;
63110;SDS011;49201;53.426;10.300;2022-10-12T05:05:20;11.20;;;4.70;;
63110;SDS011;49201;53.426;10.300;2022-10-12T05:07:45;8.83;;;4.70;;
63110;SDS011;49201;53.426;10.300;2022-10-12T05:10:10;11.67;;;5.07;;
63110;SDS011;49201;53.426;10.300;2022-10-12T05:12:36;11.23;;;5.43;;
63110;SDS011;49201;53.426;10.300;2022-10-12T05:15:01;18.67;;;4.93;;
63110;SDS011;49201;53.426;10.300;2022-10-12T05:17:27;12.40;;;5.10;;
63110;SDS011;49201;53.426;10.300;2022-10-12T05:19:52;11.03;;;4.93;;
63110;SDS011;49201;53.426;10.300;2022-10-12T05:22:17;12.20;;;4.90;;
63110;SDS011;49201;53.426;10.300;2022-10-12T05:24:43;12.80;;;5.33;;
63110;SDS011;49201;53.426;10.300;2022-10-12T05:27:08;9.50;;;4.60;;
63110;SDS011;49201;53.426;10.300;2022-10-12T05:29:34;14.40;;;5.07;;
63110;SDS011;49201;53.426;10.300;2022-10-12T05:31:59;10.63;;;4.63;;
63110;SDS011;49201;53.426;10.300;2022-10-12T05:34:25;12.07;;;4.77;;
63110;SDS011;49201;53.426;10.300;2022-10-12T05:36:50;10.93;;;4.30;;
63110;SDS011;49201;53.426;10.300;2022-10-12T05:39:16;8.23;;;4.37;;
63110;SDS011;49201;53.426;10.300;2022-10-12T05:41:41;11.80;;;4.80;;
63110;SDS011;49201;53.426;10.300;2022-10-12T05:44:07;11.80;;;4.60;;
63110;SDS011;49201;53.426;10.300;2022-10-12T05:46:32;11.87;;;4.13;;
63110;SDS011;49201;53.426;10.300;2022-10-12T05:48:57;10.03;;;3.53;;
63110;SDS011;49201;53.426;10.300;2022-10-12T05:51:23;10.17;;;3.60;;
63110;SDS011;49201;53.426;10.300;2022-10-12T05:53:48;12.00;;;4.40;;
63110;SDS011;49201;53.426;10.300;2022-10-12T05:56:14;12.90;;;4.97;;
63110;SDS011;49201;53.426;10.300;2022-10-12T05:58:39;10.90;;;3.80;;
63110;SDS011;49201;53.426;10.300;2022-10-12T06:01:05;9.50;;;3.80;;
63110;SDS011;49201;53.426;10.300;2022-10-12T06:03:33;9.73;;;4.13;;
63110;SDS011;49201;53.426;10.300;2022-10-12T06:05:58;12.00;;;4.80;;
63110;SDS011;49201;53.426;10.300;2022-10-12T06:08:24;8.93;;;4.13;;
63110;SDS011;49201;53.426;10.300;2022-10-12T06:10:50;9.57;;;3.97;;
63110;SDS011;49201;53.426;10.300;2022-10-12T06:13:16;9.93;;;3.70;;
63110;SDS011;49201;53.426;10.300;2022-10-12T06:15:44;9.33;;;3.87;;
63110;SDS011;49201;53.426;10.300;2022-10-12T06:18:10;8.40;;;4.40;;
63110;SDS011;49201;53.426;10.300;2022-10-12T06:20:36;11.03;;;4.30;;
63110;SDS011;49201;53.426;10.300;2022-10-12T06:23:02;8.83;;;4.70;;
63110;SDS011;49201;53.426;10.300;2022-10-12T06:25:27;9.30;;;4.57;;
63110;SDS011;49201;53.426;10.300;2022-10-12T06:27:53;14.93;;;4.40;;
63110;SDS011;49201;53.426;10.300;2022-10-12T06:30:18;7.67;;;4.10;;
63110;SDS011;49201;53.426;10.300;2022-10-12T06:32:44;9.17;;;3.83;;
63110;SDS011;49201;53.426;10.300;2022-10-12T06:35:10;9.73;;;3.77;;
63110;SDS011;49201;53.426;10.300;2022-10-12T06:37:35;6.53;;;3.93;;
63110;SDS011;49201;53.426;10.300;2022-10-12T06:40:00;8.70;;;3.70;;
63110;SDS011;49201;53.426;10.300;2022-10-12T06:42:26;9.77;;;4.17;;
63110;SDS011;49201;53.426;10.300;2022-10-12T06:44:51;10.93;;;4.10;;
63110;SDS011;49201;53.426;10.300;2022-10-12T06:47:17;7.97;;;3.90;;
63110;SDS011;49201;53.426;10.300;2022-10-12T06:49:42;15.33;;;4.77;;
63110;SDS011;49201;53.426;10.300;2022-10-12T06:52:08;13.50;;;5.30;;
63110;SDS011;49201;53.426;10.300;2022-10-12T06:54:33;14.57;;;5.87;;
63110;SDS011;49201;53.426;10.300;2022-10-12T06:56:58;12.30;;;5.00;;
63110;SDS011;49201;53.426;10.300;2022-10-12T06:59:24;9.23;;;4.70;;
63110;SDS011;49201;53.426;10.300;2022-10-12T07:01:50;8.73;;;4.37;;
63110;SDS011;49201;53.426;10.300;2022-10-12T07:04:16;9.40;;;4.63;;
63110;SDS011;49201;53.426;10.300;2022-10-12T07:06:42;12.60;;;4.50;;
63110;SDS011;49201;53.426;10.300;2022-10-12T07:09:08;11.60;;;5.23;;
63110;SDS011;49201;53.426;10.300;2022-10-12T07:11:34;11.03;;;4.07;;
63110;SDS011;49201;53.426;10.300;2022-10-12T07:13:59;13.37;;;4.23;;
63110;SDS011;49201;53.426;10.300;2022-10-12T07:16:25;9.87;;;4.40;;
63110;SDS011;49201;53.426;10.300;2022-10-12T07:18:50;13.53;;;3.90;;
63110;SDS011;49201;53.426;10.300;2022-10-12T07:21:16;8.30;;;3.90;;
63110;SDS011;49201;53.426;10.300;2022-10-12T07:23:41;13.37;;;4.17;;
63110;SDS011;49201;53.426;10.300;2022-10-12T07:26:07;7.37;;;3.43;;
63110;SDS011;49201;53.426;10.300;2022-10-12T07:28:34;10.10;;;3.33;;
63110;SDS011;49201;53.426;10.300;2022-10-12T07:31:00;11.87;;;3.57;;
63110;SDS011;49201;53.426;10.300;2022-10-12T07:33:29;11.03;;;3.70;;
63110;SDS011;49201;53.426;10.300;2022-10-12T07:35:59;8.20;;;3.43;;
63110;SDS011;49201;53.426;10.300;2022-10-12T07:38:25;11.00;;;3.47;;
63110;SDS011;49201;53.426;10.300;2022-10-12T07:40:51;9.77;;;3.73;;
63110;SDS011;49201;53.426;10.300;2022-10-12T07:43:17;10.27;;;4.00;;
63110;SDS011;49201;53.426;10.300;2022-10-12T07:45:42;8.10;;;3.60;;
63110;SDS011;49201;53.426;10.300;2022-10-12T07:48:08;13.47;;;3.90;;
63110;SDS011;49201;53.426;10.300;2022-10-12T07:50:34;12.17;;;3.57;;
63110;SDS011;49201;53.426;10.300;2022-10-12T07:52:59;9.40;;;3.80;;
63110;SDS011;49201;53.426;10.300;2022-10-12T07:55:25;11.60;;;4.23;;
63110;SDS011;49201;53.426;10.300;2022-10-12T07:57:50;8.70;;;3.20;;
63110;SDS011;49201;53.426;10.300;2022-10-12T08:00:15;10.80;;;3.87;;
63110;SDS011;49201;53.426;10.300;2022-10-12T08:02:41;7.80;;;3.43;;
63110;SDS011;49201;53.426;10.300;2022-10-12T08:05:07;9.40;;;3.13;;
63110;SDS011;49201;53.426;10.300;2022-10-12T08:07:32;9.57;;;3.87;;
63110;SDS011;49201;53.426;10.300;2022-10-12T08:09:58;9.83;;;2.97;;
63110;SDS011;49201;53.426;10.300;2022-10-12T08:12:23;10.23;;;3.30;;
63110;SDS011;49201;53.426;10.300;2022-10-12T08:14:48;9.53;;;3.47;;
63110;SDS011;49201;53.426;10.300;2022-10-12T08:17:14;16.00;;;4.37;;
63110;SDS011;49201;53.426;10.300;2022-10-12T08:19:39;11.87;;;4.07;;
63110;SDS011;49201;53.426;10.300;2022-10-12T08:22:05;11.57;;;3.80;;
63110;SDS011;49201;53.426;10.300;2022-10-12T08:24:30;11.67;;;3.20;;
63110;SDS011;49201;53.426;10.300;2022-10-12T08:26:56;10.17;;;3.63;;
63110;SDS011;49201;53.426;10.300;2022-10-12T08:29:21;11.27;;;3.60;;
63110;SDS011;49201;53.426;10.300;2022-10-12T08:31:46;10.77;;;3.37;;
63110;SDS011;49201;53.426;10.300;2022-10-12T08:34:15;10.47;;;3.40;;
63110;SDS011;49201;53.426;10.300;2022-10-12T08:36:40;8.13;;;2.90;;
63110;SDS011;49201;53.426;10.300;2022-10-12T08:39:06;11.67;;;3.27;;
63110;SDS011;49201;53.426;10.300;2022-10-12T08:46:32;10.40;;;3.00;;
63110;SDS011;49201;53.426;10.300;2022-10-12T08:51:51;12.23;;;3.72;;
63110;SDS011;49201;53.426;10.300;2022-10-12T08:54:19;8.75;;;2.90;;
63110;SDS011;49201;53.426;10.300;2022-10-12T08:56:50;9.45;;;3.25;;
63110;SDS011;49201;53.426;10.300;2022-10-12T08:59:17;14.10;;;3.83;;
63110;SDS011;49201;53.426;10.300;2022-10-12T09:04:44;8.25;;;3.00;;
63110;SDS011;49201;53.426;10.300;2022-10-12T09:07:27;10.55;;;3.88;;
63110;SDS011;49201;53.426;10.300;2022-10-12T09:15:20;10.27;;;3.58;;
63110;SDS011;49201;53.426;10.300;2022-10-12T09:17:50;8.38;;;3.25;;
63110;SDS011;49201;53.426;10.300;2022-10-12T09:22:59;9.75;;;3.05;;
63110;SDS011;49201;53.426;10.300;2022-10-12T09:25:28;7.15;;;3.25;;
63110;SDS011;49201;53.426;10.300;2022-10-12T09:27:56;8.18;;;3.25;;
63110;SDS011;49201;53.426;10.300;2022-10-12T09:30:39;6.63;;;3.25;;
63110;SDS011;49201;53.426;10.300;2022-10-12T09:33:13;8.88;;;3.10;;
63110;SDS011;49201;53.426;10.300;2022-10-12T09:35:47;8.60;;;3.60;;
63110;SDS011;49201;53.426;10.300;2022-10-12T09:38:15;8.63;;;3.00;;
63110;SDS011;49201;53.426;10.300;2022-10-12T09:40:40;8.90;;;3.28;;
63110;SDS011;49201;53.426;10.300;2022-10-12T09:43:06;9.07;;;2.85;;
63110;SDS011;49201;53.426;10.300;2022-10-12T09:45:33;6.63;;;2.83;;
63110;SDS011;49201;53.426;10.300;2022-10-12T09:53:12;7.22;;;2.85;;
63110;SDS011;49201;53.426;10.300;2022-10-12T09:55:50;10.13;;;2.75;;
63110;SDS011;49201;53.426;10.300;2022-10-12T09:58:18;8.02;;;3.20;;
63110;SDS011;49201;53.426;10.300;2022-10-12T10:00:45;7.85;;;3.10;;
63110;SDS011;49201;53.426;10.300;2022-10-12T10:03:37;7.88;;;2.33;;
63110;SDS011;49201;53.426;10.300;2022-10-12T10:06:03;6.15;;;2.45;;
63110;SDS011;49201;53.426;10.300;2022-10-12T10:08:33;5.50;;;2.28;;
63110;SDS011;49201;53.426;10.300;2022-10-12T10:11:04;6.75;;;2.67;;
63110;SDS011;49201;53.426;10.300;2022-10-12T10:13:37;7.90;;;2.58;;
63110;SDS011;49201;53.426;10.300;2022-10-12T10:16:07;8.13;;;2.60;;
63110;SDS011;49201;53.426;10.300;2022-10-12T10:18:37;4.30;;;2.30;;
63110;SDS011;49201;53.426;10.300;2022-10-12T10:21:12;7.50;;;2.80;;
63110;SDS011;49201;53.426;10.300;2022-10-12T10:23:41;6.90;;;3.22;;
63110;SDS011;49201;53.426;10.300;2022-10-12T10:26:13;7.78;;;2.38;;
63110;SDS011;49201;53.426;10.300;2022-10-12T10:28:44;6.65;;;2.25;;
63110;SDS011;49201;53.426;10.300;2022-10-12T10:33:37;5.32;;;2.03;;
63110;SDS011;49201;53.426;10.300;2022-10-12T10:36:19;5.60;;;2.20;;
63110;SDS011;49201;53.426;10.300;2022-10-12T10:38:50;4.95;;;2.17;;
63110;SDS011;49201;53.426;10.300;2022-10-12T10:41:28;4.75;;;2.13;;
63110;SDS011;49201;53.426;10.300;2022-10-12T10:43:57;5.85;;;1.95;;
63110;SDS011;49201;53.426;10.300;2022-10-12T10:46:27;5.70;;;2.42;;
63110;SDS011;49201;53.426;10.300;2022-10-12T10:48:59;5.40;;;2.13;;
63110;SDS011;49201;53.426;10.300;2022-10-12T10:54:23;5.95;;;2.17;;
63110;SDS011;49201;53.426;10.300;2022-10-12T10:56:56;6.70;;;2.08;;
63110;SDS011;49201;53.426;10.300;2022-10-12T11:05:11;5.28;;;2.00;;
63110;SDS011;49201;53.426;10.300;2022-10-12T11:10:22;4.95;;;2.25;;
63110;SDS011;49201;53.426;10.300;2022-10-12T11:13:02;5.95;;;2.45;;
63110;SDS011;49201;53.426;10.300;2022-10-12T11:15:45;4.93;;;2.22;;
63110;SDS011;49201;53.426;10.300;2022-10-12T11:18:20;7.03;;;2.33;;
63110;SDS011;49201;53.426;10.300;2022-10-12T11:23:30;5.47;;;2.00;;
63110;SDS011;49201;53.426;10.300;2022-10-12T11:26:07;6.70;;;2.47;;
63110;SDS011;49201;53.426;10.300;2022-10-12T11:28:35;5.85;;;2.05;;
63110;SDS011;49201;53.426;10.300;2022-10-12T11:31:03;3.35;;;1.95;;
63110;SDS011;49201;53.426;10.300;2022-10-12T11:33:34;7.50;;;2.45;;
63110;SDS011;49201;53.426;10.300;2022-10-12T11:36:07;9.90;;;2.55;;
63110;SDS011;49201;53.426;10.300;2022-10-12T11:38:44;5.18;;;1.90;;
63110;SDS011;49201;53.426;10.300;2022-10-12T11:44:00;7.13;;;2.42;;
63110;SDS011;49201;53.426;10.300;2022-10-12T11:47:12;5.72;;;2.00;;
63110;SDS011;49201;53.426;10.300;2022-10-12T11:52:12;7.85;;;2.63;;
63110;SDS011;49201;53.426;10.300;2022-10-12T11:54:40;7.45;;;2.30;;
63110;SDS011;49201;53.426;10.300;2022-10-12T11:57:15;4.97;;;2.00;;
63110;SDS011;49201;53.426;10.300;2022-10-12T11:59:48;6.35;;;2.38;;
63110;SDS011;49201;53.426;10.300;2022-10-12T12:04:49;6.00;;;2.03;;
63110;SDS011;49201;53.426;10.300;2022-10-12T12:09:47;5.10;;;2.13;;
63110;SDS011;49201;53.426;10.300;2022-10-12T12:12:20;5.95;;;2.25;;
63110;SDS011;49201;53.426;10.300;2022-10-12T12:19:55;5.45;;;2.15;;
63110;SDS011;49201;53.426;10.300;2022-10-12T12:25:15;5.43;;;2.33;;
63110;SDS011;49201;53.426;10.300;2022-10-12T12:28:27;6.47;;;2.10;;
63110;SDS011;49201;53.426;10.300;2022-10-12T12:30:56;5.70;;;2.15;;
63110;SDS011;49201;53.426;10.300;2022-10-12T12:33:30;4.95;;;2.00;;
63110;SDS011;49201;53.426;10.300;2022-10-12T12:36:06;5.75;;;2.05;;
63110;SDS011;49201;53.426;10.300;2022-10-12T12:38:46;6.45;;;2.20;;
63110;SDS011;49201;53.426;10.300;2022-10-12T12:41:19;6.00;;;2.33;;
63110;SDS011;49201;53.426;10.300;2022-10-12T12:46:17;7.47;;;2.47;;
63110;SDS011;49201;53.426;10.300;2022-10-12T12:51:11;5.95;;;2.15;;
63110;SDS011;49201;53.426;10.300;2022-10-12T12:53:42;6.65;;;1.80;;
63110;SDS011;49201;53.426;10.300;2022-10-12T13:08:19;6.15;;;2.42;;
63110;SDS011;49201;53.426;10.300;2022-10-12T13:19:20;3.55;;;1.65;;
63110;SDS011;49201;53.426;10.300;2022-10-12T13:21:47;5.05;;;1.98;;
63110;SDS011;49201;53.426;10.300;2022-10-12T13:24:26;7.35;;;2.08;;
63110;SDS011;49201;53.426;10.300;2022-10-12T13:26:58;9.17;;;2.40;;
63110;SDS011;49201;53.426;10.300;2022-10-12T13:29:42;5.37;;;2.03;;
63110;SDS011;49201;53.426;10.300;2022-10-12T13:32:26;7.27;;;1.87;;
63110;SDS011;49201;53.426;10.300;2022-10-12T13:35:09;4.70;;;1.93;;
63110;SDS011;49201;53.426;10.300;2022-10-12T13:37:39;5.40;;;1.90;;
63110;SDS011;49201;53.426;10.300;2022-10-12T13:40:04;7.90;;;2.23;;
63110;SDS011;49201;53.426;10.300;2022-10-12T13:42:31;7.13;;;2.27;;
63110;SDS011;49201;53.426;10.300;2022-10-12T13:45:00;5.00;;;2.00;;
63110;SDS011;49201;53.426;10.300;2022-10-12T13:47:30;6.50;;;2.10;;
63110;SDS011;49201;53.426;10.300;2022-10-12T13:49:57;7.27;;;2.17;;
63110;SDS011;49201;53.426;10.300;2022-10-12T13:52:30;5.83;;;2.00;;
63110;SDS011;49201;53.426;10.300;2022-10-12T13:54:58;7.37;;;2.20;;
63110;SDS011;49201;53.426;10.300;2022-10-12T14:00:41;6.23;;;2.10;;
63110;SDS011;49201;53.426;10.300;2022-10-12T14:02:56;6.53;;;1.90;;
63110;SDS011;49201;53.426;10.300;2022-10-12T14:05:24;7.07;;;1.97;;
63110;SDS011;49201;53.426;10.300;2022-10-12T14:07:52;7.37;;;2.23;;
63110;SDS011;49201;53.426;10.300;2022-10-12T14:10:31;5.67;;;1.90;;
63110;SDS011;49201;53.426;10.300;2022-10-12T14:12:59;8.00;;;2.20;;
63110;SDS011;49201;53.426;10.300;2022-10-12T14:15:31;5.70;;;2.17;;
63110;SDS011;49201;53.426;10.300;2022-10-12T14:17:59;6.40;;;1.90;;
63110;SDS011;49201;53.426;10.300;2022-10-12T14:22:55;6.57;;;2.07;;
63110;SDS011;49201;53.426;10.300;2022-10-12T14:25:24;8.93;;;2.10;;
63110;SDS011;49201;53.426;10.300;2022-10-12T14:27:52;7.10;;;2.10;;
63110;SDS011;49201;53.426;10.300;2022-10-12T14:30:21;6.40;;;2.00;;
63110;SDS011;49201;53.426;10.300;2022-10-12T14:32:50;7.17;;;2.60;;
63110;SDS011;49201;53.426;10.300;2022-10-12T14:37:43;7.13;;;2.27;;
63110;SDS011;49201;53.426;10.300;2022-10-12T14:45:23;5.57;;;2.10;;
63110;SDS011;49201;53.426;10.300;2022-10-12T14:47:50;5.30;;;1.80;;
63110;SDS011;49201;53.426;10.300;2022-10-12T14:50:16;6.37;;;2.10;;
63110;SDS011;49201;53.426;10.300;2022-10-12T14:52:44;7.70;;;2.60;;
63110;SDS011;49201;53.426;10.300;2022-10-12T14:55:16;6.83;;;2.00;;
63110;SDS011;49201;53.426;10.300;2022-10-12T14:57:52;5.67;;;2.10;;
63110;SDS011;49201;53.426;10.300;2022-10-12T15:02:44;5.77;;;2.13;;
63110;SDS011;49201;53.426;10.300;2022-10-12T15:05:11;5.83;;;2.07;;
63110;SDS011;49201;53.426;10.300;2022-10-12T15:07:38;4.00;;;1.60;;
63110;SDS011;49201;53.426;10.300;2022-10-12T15:10:04;5.80;;;1.60;;
63110;SDS011;49201;53.426;10.300;2022-10-12T15:12:30;5.00;;;2.00;;
63110;SDS011;49201;53.426;10.300;2022-10-12T15:14:58;6.33;;;1.80;;
63110;SDS011;49201;53.426;10.300;2022-10-12T15:17:24;4.43;;;2.03;;
63110;SDS011;49201;53.426;10.300;2022-10-12T15:19:50;7.33;;;1.80;;
63110;SDS011;49201;53.426;10.300;2022-10-12T15:22:17;5.00;;;1.80;;
63110;SDS011;49201;53.426;10.300;2022-10-12T15:24:44;5.93;;;1.70;;
63110;SDS011;49201;53.426;10.300;2022-10-12T15:27:10;4.40;;;1.80;;
63110;SDS011;49201;53.426;10.300;2022-10-12T15:29:36;7.10;;;2.60;;
63110;SDS011;49201;53.426;10.300;2022-10-12T15:32:01;4.97;;;2.20;;
63110;SDS011;49201;53.426;10.300;2022-10-12T15:34:27;5.23;;;2.33;;
63110;SDS011;49201;53.426;10.300;2022-10-12T15:36:53;7.50;;;2.47;;
63110;SDS011;49201;53.426;10.300;2022-10-12T15:39:18;6.20;;;2.30;;
63110;SDS011;49201;53.426;10.300;2022-10-12T15:41:44;7.03;;;2.53;;
63110;SDS011;49201;53.426;10.300;2022-10-12T15:44:13;6.53;;;2.27;;
63110;SDS011;49201;53.426;10.300;2022-10-12T15:46:39;11.73;;;4.07;;
63110;SDS011;49201;53.426;10.300;2022-10-12T15:49:06;10.10;;;5.33;;
63110;SDS011;49201;53.426;10.300;2022-10-12T15:51:33;11.53;;;5.13;;
63110;SDS011;49201;53.426;10.300;2022-10-12T15:54:03;10.47;;;4.23;;
63110;SDS011;49201;53.426;10.300;2022-10-12T15:56:28;5.13;;;2.50;;
63110;SDS011;49201;53.426;10.300;2022-10-12T15:58:54;7.13;;;2.70;;
63110;SDS011;49201;53.426;10.300;2022-10-12T16:01:19;7.63;;;2.43;;
63110;SDS011;49201;53.426;10.300;2022-10-12T16:03:45;8.07;;;2.03;;
63110;SDS011;49201;53.426;10.300;2022-10-12T16:06:11;7.27;;;2.20;;
63110;SDS011;49201;53.426;10.300;2022-10-12T16:08:37;7.30;;;2.47;;
63110;SDS011;49201;53.426;10.300;2022-10-12T16:11:03;7.90;;;2.40;;
63110;SDS011;49201;53.426;10.300;2022-10-12T16:13:30;8.07;;;2.40;;
63110;SDS011;49201;53.426;10.300;2022-10-12T16:15:56;9.70;;;2.77;;
63110;SDS011;49201;53.426;10.300;2022-10-12T16:18:22;7.30;;;2.70;;
63110;SDS011;49201;53.426;10.300;2022-10-12T16:20:47;7.20;;;2.00;;
63110;SDS011;49201;53.426;10.300;2022-10-12T16:23:32;9.30;;;2.73;;
63110;SDS011;49201;53.426;10.300;2022-10-12T16:26:00;7.67;;;2.30;;
63110;SDS011;49201;53.426;10.300;2022-10-12T16:28:27;6.73;;;2.53;;
63110;SDS011;49201;53.426;10.300;2022-10-12T16:30:53;8.57;;;2.87;;
63110;SDS011;49201;53.426;10.300;2022-10-12T16:33:19;6.43;;;2.03;;
63110;SDS011;49201;53.426;10.300;2022-10-12T16:35:44;8.83;;;2.40;;
63110;SDS011;49201;53.426;10.300;2022-10-12T16:38:10;5.03;;;2.27;;
63110;SDS011;49201;53.426;10.300;2022-10-12T16:40:39;6.40;;;2.13;;
63110;SDS011;49201;53.426;10.300;2022-10-12T16:43:06;8.27;;;2.87;;
63110;SDS011;49201;53.426;10.300;2022-10-12T16:45:32;10.30;;;2.67;;